sensor_id;sensor_type;location;lat;lon;timestamp;temperature;humidity
42835;DHT22;29335;50.526;30.458;2022-08-19T00:01:40;21.70;99.80
42835;DHT22;29335;50.526;30.458;2022-08-19T00:04:08;21.70;99.90
42835;DHT22;29335;50.526;30.458;2022-08-19T00:06:35;21.70;99.90
42835;DHT22;29335;50.526;30.458;2022-08-19T00:09:04;21.70;99.90
42835;DHT22;29335;50.526;30.458;2022-08-19T00:11:31;21.70;99.90
42835;DHT22;29335;50.526;30.458;2022-08-19T00:13:57;21.70;99.90
42835;DHT22;29335;50.526;30.458;2022-08-19T00:16:23;21.70;99.90
42835;DHT22;29335;50.526;30.458;2022-08-19T00:18:50;21.70;99.90
42835;DHT22;29335;50.526;30.458;2022-08-19T00:21:16;21.60;99.90
42835;DHT22;29335;50.526;30.458;2022-08-19T00:23:42;21.70;99.90
42835;DHT22;29335;50.526;30.458;2022-08-19T00:26:09;21.60;99.90
42835;DHT22;29335;50.526;30.458;2022-08-19T00:28:35;21.50;99.90
42835;DHT22;29335;50.526;30.458;2022-08-19T00:31:02;21.50;99.90
42835;DHT22;29335;50.526;30.458;2022-08-19T00:33:29;21.50;99.90
42835;DHT22;29335;50.526;30.458;2022-08-19T00:35:58;21.40;99.90
42835;DHT22;29335;50.526;30.458;2022-08-19T00:38:24;21.30;99.90
42835;DHT22;29335;50.526;30.458;2022-08-19T00:40:50;21.40;99.90
42835;DHT22;29335;50.526;30.458;2022-08-19T00:43:20;21.40;99.90
42835;DHT22;29335;50.526;30.458;2022-08-19T00:45:46;21.50;99.90
42835;DHT22;29335;50.526;30.458;2022-08-19T00:48:13;21.40;99.90
42835;DHT22;29335;50.526;30.458;2022-08-19T00:50:40;21.50;99.90
42835;DHT22;29335;50.526;30.458;2022-08-19T00:53:10;21.40;99.90
42835;DHT22;29335;50.526;30.458;2022-08-19T00:55:39;21.30;99.90
42835;DHT22;29335;50.526;30.458;2022-08-19T00:58:09;21.20;99.90
42835;DHT22;29335;50.526;30.458;2022-08-19T01:00:37;21.20;99.90
42835;DHT22;29335;50.526;30.458;2022-08-19T01:03:08;21.10;99.90
42835;DHT22;29335;50.526;30.458;2022-08-19T01:05:34;21.10;99.90
42835;DHT22;29335;50.526;30.458;2022-08-19T01:08:02;21.00;99.90
42835;DHT22;29335;50.526;30.458;2022-08-19T01:10:31;21.10;99.90
42835;DHT22;29335;50.526;30.458;2022-08-19T01:12:58;21.10;99.90
42835;DHT22;29335;50.526;30.458;2022-08-19T01:15:32;21.10;99.90
42835;DHT22;29335;50.526;30.458;2022-08-19T01:18:07;21.20;99.90
42835;DHT22;29335;50.526;30.458;2022-08-19T01:20:33;21.10;99.90
42835;DHT22;29335;50.526;30.458;2022-08-19T01:23:00;21.10;99.90
42835;DHT22;29335;50.526;30.458;2022-08-19T01:25:50;21.00;99.90
42835;DHT22;29335;50.526;30.458;2022-08-19T01:28:20;21.00;99.90
42835;DHT22;29335;50.526;30.458;2022-08-19T01:30:46;21.00;99.90
42835;DHT22;29335;50.526;30.458;2022-08-19T01:33:13;21.00;99.90
42835;DHT22;29335;50.526;30.458;2022-08-19T01:35:39;21.00;99.90
42835;DHT22;29335;50.526;30.458;2022-08-19T01:38:07;20.90;99.90
42835;DHT22;29335;50.526;30.458;2022-08-19T01:40:37;20.90;99.90
42835;DHT22;29335;50.526;30.458;2022-08-19T01:43:04;21.00;99.90
42835;DHT22;29335;50.526;30.458;2022-08-19T01:45:31;20.90;99.90
42835;DHT22;29335;50.526;30.458;2022-08-19T01:47:58;20.90;99.90
42835;DHT22;29335;50.526;30.458;2022-08-19T01:50:25;20.80;99.90
42835;DHT22;29335;50.526;30.458;2022-08-19T01:52:52;24.00;99.90
42835;DHT22;29335;50.526;30.458;2022-08-19T01:55:20;20.60;99.90
42835;DHT22;29335;50.526;30.458;2022-08-19T01:57:54;20.60;99.90
42835;DHT22;29335;50.526;30.458;2022-08-19T02:00:22;20.70;99.90
42835;DHT22;29335;50.526;30.458;2022-08-19T02:02:48;20.70;99.90
42835;DHT22;29335;50.526;30.458;2022-08-19T02:05:14;20.60;99.90
42835;DHT22;29335;50.526;30.458;2022-08-19T02:07:44;20.60;99.90
42835;DHT22;29335;50.526;30.458;2022-08-19T02:10:18;20.50;99.90
42835;DHT22;29335;50.526;30.458;2022-08-19T02:12:44;20.60;99.90
42835;DHT22;29335;50.526;30.458;2022-08-19T02:15:10;20.60;99.90
42835;DHT22;29335;50.526;30.458;2022-08-19T02:17:36;20.50;99.90
42835;DHT22;29335;50.526;30.458;2022-08-19T02:20:02;20.50;99.90
42835;DHT22;29335;50.526;30.458;2022-08-19T02:22:28;20.40;99.90
42835;DHT22;29335;50.526;30.458;2022-08-19T02:24:54;20.40;99.90
42835;DHT22;29335;50.526;30.458;2022-08-19T02:27:21;20.30;99.90
42835;DHT22;29335;50.526;30.458;2022-08-19T02:29:49;20.40;99.90
42835;DHT22;29335;50.526;30.458;2022-08-19T02:32:15;20.20;99.90
42835;DHT22;29335;50.526;30.458;2022-08-19T02:34:41;20.50;99.90
42835;DHT22;29335;50.526;30.458;2022-08-19T02:37:07;20.30;99.90
42835;DHT22;29335;50.526;30.458;2022-08-19T02:39:53;20.30;99.90
42835;DHT22;29335;50.526;30.458;2022-08-19T02:42:18;20.30;99.90
42835;DHT22;29335;50.526;30.458;2022-08-19T02:44:44;20.20;99.90
42835;DHT22;29335;50.526;30.458;2022-08-19T02:47:10;20.20;99.90
42835;DHT22;29335;50.526;30.458;2022-08-19T02:49:36;20.10;99.90
42835;DHT22;29335;50.526;30.458;2022-08-19T02:52:02;20.10;99.90
42835;DHT22;29335;50.526;30.458;2022-08-19T02:54:28;20.20;99.90
42835;DHT22;29335;50.526;30.458;2022-08-19T02:56:53;20.10;99.90
42835;DHT22;29335;50.526;30.458;2022-08-19T02:59:19;20.10;99.90
42835;DHT22;29335;50.526;30.458;2022-08-19T03:01:45;20.00;99.90
42835;DHT22;29335;50.526;30.458;2022-08-19T03:04:13;20.10;99.90
42835;DHT22;29335;50.526;30.458;2022-08-19T03:06:42;20.00;99.90
42835;DHT22;29335;50.526;30.458;2022-08-19T03:09:08;20.10;99.90
42835;DHT22;29335;50.526;30.458;2022-08-19T03:11:34;20.20;99.90
42835;DHT22;29335;50.526;30.458;2022-08-19T03:14:01;20.20;99.90
42835;DHT22;29335;50.526;30.458;2022-08-19T03:16:29;20.10;99.90
42835;DHT22;29335;50.526;30.458;2022-08-19T03:18:56;20.10;99.90
42835;DHT22;29335;50.526;30.458;2022-08-19T03:21:27;20.20;99.90
42835;DHT22;29335;50.526;30.458;2022-08-19T03:23:57;20.20;99.90
42835;DHT22;29335;50.526;30.458;2022-08-19T03:26:23;20.30;99.90
42835;DHT22;29335;50.526;30.458;2022-08-19T03:28:49;20.30;99.90
42835;DHT22;29335;50.526;30.458;2022-08-19T03:31:17;20.50;99.90
42835;DHT22;29335;50.526;30.458;2022-08-19T03:33:43;20.50;99.90
42835;DHT22;29335;50.526;30.458;2022-08-19T03:36:11;20.60;99.90
42835;DHT22;29335;50.526;30.458;2022-08-19T03:38:42;20.90;99.90
42835;DHT22;29335;50.526;30.458;2022-08-19T03:41:12;20.70;99.90
42835;DHT22;29335;50.526;30.458;2022-08-19T03:43:39;21.00;99.90
42835;DHT22;29335;50.526;30.458;2022-08-19T03:46:11;20.90;99.90
42835;DHT22;29335;50.526;30.458;2022-08-19T03:48:39;21.40;99.90
42835;DHT22;29335;50.526;30.458;2022-08-19T03:51:07;21.20;99.90
42835;DHT22;29335;50.526;30.458;2022-08-19T03:53:34;21.10;99.90
42835;DHT22;29335;50.526;30.458;2022-08-19T03:56:00;21.40;99.90
42835;DHT22;29335;50.526;30.458;2022-08-19T03:58:28;21.50;99.90
42835;DHT22;29335;50.526;30.458;2022-08-19T04:00:55;21.70;99.90
42835;DHT22;29335;50.526;30.458;2022-08-19T04:03:22;21.70;99.90
42835;DHT22;29335;50.526;30.458;2022-08-19T04:05:47;21.90;99.90
42835;DHT22;29335;50.526;30.458;2022-08-19T04:08:14;22.00;99.90
42835;DHT22;29335;50.526;30.458;2022-08-19T04:10:41;22.00;99.90
42835;DHT22;29335;50.526;30.458;2022-08-19T04:13:07;22.00;99.90
42835;DHT22;29335;50.526;30.458;2022-08-19T04:15:39;22.00;99.90
42835;DHT22;29335;50.526;30.458;2022-08-19T04:18:07;22.50;99.90
42835;DHT22;29335;50.526;30.458;2022-08-19T04:20:39;22.20;99.90
42835;DHT22;29335;50.526;30.458;2022-08-19T04:23:05;22.50;99.90
42835;DHT22;29335;50.526;30.458;2022-08-19T04:25:44;22.40;99.90
42835;DHT22;29335;50.526;30.458;2022-08-19T04:28:11;22.60;99.90
42835;DHT22;29335;50.526;30.458;2022-08-19T04:30:40;22.80;99.90
42835;DHT22;29335;50.526;30.458;2022-08-19T04:33:05;22.80;99.90
42835;DHT22;29335;50.526;30.458;2022-08-19T04:35:36;22.90;99.70
42835;DHT22;29335;50.526;30.458;2022-08-19T04:38:02;22.90;99.60
42835;DHT22;29335;50.526;30.458;2022-08-19T04:40:28;22.90;99.60
42835;DHT22;29335;50.526;30.458;2022-08-19T04:43:12;23.10;99.30
42835;DHT22;29335;50.526;30.458;2022-08-19T04:45:39;23.20;99.10
42835;DHT22;29335;50.526;30.458;2022-08-19T04:48:05;23.20;98.90
42835;DHT22;29335;50.526;30.458;2022-08-19T04:50:31;23.20;99.00
42835;DHT22;29335;50.526;30.458;2022-08-19T04:52:57;23.10;99.10
42835;DHT22;29335;50.526;30.458;2022-08-19T04:55:22;23.30;98.50
42835;DHT22;29335;50.526;30.458;2022-08-19T04:57:50;23.20;99.10
42835;DHT22;29335;50.526;30.458;2022-08-19T05:00:16;23.20;99.00
42835;DHT22;29335;50.526;30.458;2022-08-19T05:02:42;23.50;98.40
42835;DHT22;29335;50.526;30.458;2022-08-19T05:05:08;23.40;98.40
42835;DHT22;29335;50.526;30.458;2022-08-19T05:07:34;23.30;98.50
42835;DHT22;29335;50.526;30.458;2022-08-19T05:09:59;23.40;98.60
42835;DHT22;29335;50.526;30.458;2022-08-19T05:12:25;23.40;98.60
42835;DHT22;29335;50.526;30.458;2022-08-19T05:14:52;23.40;98.70
42835;DHT22;29335;50.526;30.458;2022-08-19T05:17:19;23.50;98.50
42835;DHT22;29335;50.526;30.458;2022-08-19T05:19:45;23.80;97.90
42835;DHT22;29335;50.526;30.458;2022-08-19T05:22:29;23.70;98.00
42835;DHT22;29335;50.526;30.458;2022-08-19T05:24:58;23.50;98.00
42835;DHT22;29335;50.526;30.458;2022-08-19T05:27:24;23.40;98.10
42835;DHT22;29335;50.526;30.458;2022-08-19T05:29:49;23.40;98.10
42835;DHT22;29335;50.526;30.458;2022-08-19T05:32:15;23.40;98.20
42835;DHT22;29335;50.526;30.458;2022-08-19T05:34:41;23.60;98.00
42835;DHT22;29335;50.526;30.458;2022-08-19T05:37:07;23.70;97.90
42835;DHT22;29335;50.526;30.458;2022-08-19T05:39:35;23.70;97.90
42835;DHT22;29335;50.526;30.458;2022-08-19T05:42:04;23.80;97.90
42835;DHT22;29335;50.526;30.458;2022-08-19T05:44:33;23.80;97.70
42835;DHT22;29335;50.526;30.458;2022-08-19T05:47:00;23.70;97.60
42835;DHT22;29335;50.526;30.458;2022-08-19T05:49:27;23.60;97.70
42835;DHT22;29335;50.526;30.458;2022-08-19T05:51:54;23.70;97.80
42835;DHT22;29335;50.526;30.458;2022-08-19T05:54:21;24.00;97.20
42835;DHT22;29335;50.526;30.458;2022-08-19T05:56:50;24.50;97.40
42835;DHT22;29335;50.526;30.458;2022-08-19T05:59:16;23.90;97.50
42835;DHT22;29335;50.526;30.458;2022-08-19T06:01:44;24.00;97.30
42835;DHT22;29335;50.526;30.458;2022-08-19T06:04:11;23.70;97.80
42835;DHT22;29335;50.526;30.458;2022-08-19T06:06:39;23.40;97.80
42835;DHT22;29335;50.526;30.458;2022-08-19T06:09:06;23.20;98.00
42835;DHT22;29335;50.526;30.458;2022-08-19T06:11:42;23.10;98.10
42835;DHT22;29335;50.526;30.458;2022-08-19T06:14:12;23.00;98.10
42835;DHT22;29335;50.526;30.458;2022-08-19T06:16:39;23.10;98.30
42835;DHT22;29335;50.526;30.458;2022-08-19T06:19:08;23.00;98.60
42835;DHT22;29335;50.526;30.458;2022-08-19T06:21:36;23.00;99.00
42835;DHT22;29335;50.526;30.458;2022-08-19T06:24:04;22.90;99.10
42835;DHT22;29335;50.526;30.458;2022-08-19T06:26:30;22.90;98.90
42835;DHT22;29335;50.526;30.458;2022-08-19T06:28:56;23.00;98.80
42835;DHT22;29335;50.526;30.458;2022-08-19T06:31:25;22.90;99.00
42835;DHT22;29335;50.526;30.458;2022-08-19T06:33:51;22.70;99.20
42835;DHT22;29335;50.526;30.458;2022-08-19T06:36:22;22.60;99.60
42835;DHT22;29335;50.526;30.458;2022-08-19T06:38:52;22.50;99.70
42835;DHT22;29335;50.526;30.458;2022-08-19T06:41:18;22.70;99.80
42835;DHT22;29335;50.526;30.458;2022-08-19T06:43:44;22.70;99.70
42835;DHT22;29335;50.526;30.458;2022-08-19T06:46:12;22.80;99.80
42835;DHT22;29335;50.526;30.458;2022-08-19T06:48:38;22.80;99.60
42835;DHT22;29335;50.526;30.458;2022-08-19T06:51:04;22.70;99.40
42835;DHT22;29335;50.526;30.458;2022-08-19T06:53:31;23.10;98.80
42835;DHT22;29335;50.526;30.458;2022-08-19T06:55:57;23.20;98.90
42835;DHT22;29335;50.526;30.458;2022-08-19T06:58:30;23.40;99.00
42835;DHT22;29335;50.526;30.458;2022-08-19T07:01:02;23.00;99.10
42835;DHT22;29335;50.526;30.458;2022-08-19T07:03:32;23.00;99.50
42835;DHT22;29335;50.526;30.458;2022-08-19T07:06:18;23.10;99.00
42835;DHT22;29335;50.526;30.458;2022-08-19T07:08:46;23.20;99.20
42835;DHT22;29335;50.526;30.458;2022-08-19T07:11:15;23.30;99.00
42835;DHT22;29335;50.526;30.458;2022-08-19T07:13:43;23.40;99.10
42835;DHT22;29335;50.526;30.458;2022-08-19T07:16:12;23.30;99.20
42835;DHT22;29335;50.526;30.458;2022-08-19T07:18:39;23.10;98.90
42835;DHT22;29335;50.526;30.458;2022-08-19T07:21:06;23.20;99.30
42835;DHT22;29335;50.526;30.458;2022-08-19T07:23:33;23.10;99.40
42835;DHT22;29335;50.526;30.458;2022-08-19T07:26:09;23.30;99.40
42835;DHT22;29335;50.526;30.458;2022-08-19T07:28:36;23.40;98.70
42835;DHT22;29335;50.526;30.458;2022-08-19T07:31:06;23.30;99.10
42835;DHT22;29335;50.526;30.458;2022-08-19T07:33:32;23.30;99.20
42835;DHT22;29335;50.526;30.458;2022-08-19T07:35:59;23.40;99.20
42835;DHT22;29335;50.526;30.458;2022-08-19T07:38:25;23.50;99.10
42835;DHT22;29335;50.526;30.458;2022-08-19T07:40:51;23.80;99.10
42835;DHT22;29335;50.526;30.458;2022-08-19T07:43:16;23.80;98.60
42835;DHT22;29335;50.526;30.458;2022-08-19T07:45:45;23.70;98.80
42835;DHT22;29335;50.526;30.458;2022-08-19T07:48:12;23.80;98.70
42835;DHT22;29335;50.526;30.458;2022-08-19T07:50:38;23.70;99.10
42835;DHT22;29335;50.526;30.458;2022-08-19T07:53:04;23.70;99.40
42835;DHT22;29335;50.526;30.458;2022-08-19T07:55:29;23.60;99.20
42835;DHT22;29335;50.526;30.458;2022-08-19T07:57:55;23.70;99.30
42835;DHT22;29335;50.526;30.458;2022-08-19T08:00:21;23.80;99.00
42835;DHT22;29335;50.526;30.458;2022-08-19T08:02:47;23.80;98.80
42835;DHT22;29335;50.526;30.458;2022-08-19T08:05:13;24.10;98.20
42835;DHT22;29335;50.526;30.458;2022-08-19T08:07:57;24.00;98.50
42835;DHT22;29335;50.526;30.458;2022-08-19T08:10:41;24.30;98.60
42835;DHT22;29335;50.526;30.458;2022-08-19T08:13:07;24.10;99.00
42835;DHT22;29335;50.526;30.458;2022-08-19T08:15:32;24.20;98.70
42835;DHT22;29335;50.526;30.458;2022-08-19T08:17:58;24.60;98.00
42835;DHT22;29335;50.526;30.458;2022-08-19T08:20:24;24.60;97.90
42835;DHT22;29335;50.526;30.458;2022-08-19T08:22:50;24.30;98.20
42835;DHT22;29335;50.526;30.458;2022-08-19T08:25:35;24.20;98.00
42835;DHT22;29335;50.526;30.458;2022-08-19T08:28:01;24.20;98.20
42835;DHT22;29335;50.526;30.458;2022-08-19T08:30:29;24.50;97.70
42835;DHT22;29335;50.526;30.458;2022-08-19T08:32:55;24.30;97.70
42835;DHT22;29335;50.526;30.458;2022-08-19T08:35:22;24.30;97.80
42835;DHT22;29335;50.526;30.458;2022-08-19T08:37:50;24.80;97.40
42835;DHT22;29335;50.526;30.458;2022-08-19T08:40:38;24.70;97.20
42835;DHT22;29335;50.526;30.458;2022-08-19T08:43:38;24.70;96.90
42835;DHT22;29335;50.526;30.458;2022-08-19T08:46:19;24.70;97.20
42835;DHT22;29335;50.526;30.458;2022-08-19T08:48:53;24.50;97.30
42835;DHT22;29335;50.526;30.458;2022-08-19T08:51:30;24.60;96.90
42835;DHT22;29335;50.526;30.458;2022-08-19T08:53:59;24.40;97.20
42835;DHT22;29335;50.526;30.458;2022-08-19T08:56:26;24.40;97.50
42835;DHT22;29335;50.526;30.458;2022-08-19T09:01:23;24.50;98.30
42835;DHT22;29335;50.526;30.458;2022-08-19T09:03:48;24.40;98.40
42835;DHT22;29335;50.526;30.458;2022-08-19T09:06:36;24.50;98.00
42835;DHT22;29335;50.526;30.458;2022-08-19T09:14:27;24.50;98.00
42835;DHT22;29335;50.526;30.458;2022-08-19T09:16:57;24.60;98.00
42835;DHT22;29335;50.526;30.458;2022-08-19T09:19:23;24.70;98.10
42835;DHT22;29335;50.526;30.458;2022-08-19T09:21:48;24.90;97.60
42835;DHT22;29335;50.526;30.458;2022-08-19T09:24:15;25.10;97.30
42835;DHT22;29335;50.526;30.458;2022-08-19T09:26:41;25.40;96.70
42835;DHT22;29335;50.526;30.458;2022-08-19T09:29:09;25.30;96.90
42835;DHT22;29335;50.526;30.458;2022-08-19T09:31:35;25.40;96.90
42835;DHT22;29335;50.526;30.458;2022-08-19T09:34:01;25.20;97.40
42835;DHT22;29335;50.526;30.458;2022-08-19T09:36:30;25.00;97.80
42835;DHT22;29335;50.526;30.458;2022-08-19T09:38:58;25.00;97.80
42835;DHT22;29335;50.526;30.458;2022-08-19T09:41:26;25.30;97.60
42835;DHT22;29335;50.526;30.458;2022-08-19T09:43:53;25.40;97.50
42835;DHT22;29335;50.526;30.458;2022-08-19T09:46:21;25.50;97.40
42835;DHT22;29335;50.526;30.458;2022-08-19T09:48:48;25.50;97.20
42835;DHT22;29335;50.526;30.458;2022-08-19T09:51:20;25.60;97.00
42835;DHT22;29335;50.526;30.458;2022-08-19T09:53:47;25.40;97.50
42835;DHT22;29335;50.526;30.458;2022-08-19T09:56:17;25.50;97.30
42835;DHT22;29335;50.526;30.458;2022-08-19T09:58:42;25.60;97.10
42835;DHT22;29335;50.526;30.458;2022-08-19T10:01:15;25.70;96.90
42835;DHT22;29335;50.526;30.458;2022-08-19T10:03:41;25.80;96.80
42835;DHT22;29335;50.526;30.458;2022-08-19T10:06:07;25.80;97.00
42835;DHT22;29335;50.526;30.458;2022-08-19T10:08:36;25.60;97.30
42835;DHT22;29335;50.526;30.458;2022-08-19T10:11:03;25.50;97.30
42835;DHT22;29335;50.526;30.458;2022-08-19T10:13:31;25.50;97.10
42835;DHT22;29335;50.526;30.458;2022-08-19T10:16:06;25.50;97.10
42835;DHT22;29335;50.526;30.458;2022-08-19T10:18:33;25.50;97.20
42835;DHT22;29335;50.526;30.458;2022-08-19T10:23:38;25.70;97.20
42835;DHT22;29335;50.526;30.458;2022-08-19T10:26:06;25.70;97.30
42835;DHT22;29335;50.526;30.458;2022-08-19T10:28:36;25.80;96.80
42835;DHT22;29335;50.526;30.458;2022-08-19T10:31:15;25.90;96.40
42835;DHT22;29335;50.526;30.458;2022-08-19T10:33:40;25.90;96.70
42835;DHT22;29335;50.526;30.458;2022-08-19T10:36:14;26.20;96.50
42835;DHT22;29335;50.526;30.458;2022-08-19T10:38:43;25.90;96.20
42835;DHT22;29335;50.526;30.458;2022-08-19T10:41:16;26.20;95.90
42835;DHT22;29335;50.526;30.458;2022-08-19T10:43:43;26.30;96.00
42835;DHT22;29335;50.526;30.458;2022-08-19T10:46:14;26.20;95.60
42835;DHT22;29335;50.526;30.458;2022-08-19T10:48:41;26.20;95.80
42835;DHT22;29335;50.526;30.458;2022-08-19T10:51:08;25.90;95.50
42835;DHT22;29335;50.526;30.458;2022-08-19T10:53:52;26.10;95.40
42835;DHT22;29335;50.526;30.458;2022-08-19T10:56:18;25.80;95.40
42835;DHT22;29335;50.526;30.458;2022-08-19T10:59:04;26.00;95.60
42835;DHT22;29335;50.526;30.458;2022-08-19T11:01:31;26.10;95.50
42835;DHT22;29335;50.526;30.458;2022-08-19T11:03:59;26.20;95.60
42835;DHT22;29335;50.526;30.458;2022-08-19T11:06:25;26.10;95.00
42835;DHT22;29335;50.526;30.458;2022-08-19T11:08:52;26.20;95.20
42835;DHT22;29335;50.526;30.458;2022-08-19T11:11:18;26.20;95.00
42835;DHT22;29335;50.526;30.458;2022-08-19T11:13:43;26.10;95.20
42835;DHT22;29335;50.526;30.458;2022-08-19T11:16:10;26.20;95.30
42835;DHT22;29335;50.526;30.458;2022-08-19T11:18:38;26.00;95.50
42835;DHT22;29335;50.526;30.458;2022-08-19T11:21:31;25.90;95.40
42835;DHT22;29335;50.526;30.458;2022-08-19T11:24:00;25.80;94.90
42835;DHT22;29335;50.526;30.458;2022-08-19T11:26:29;25.80;95.10
42835;DHT22;29335;50.526;30.458;2022-08-19T11:28:56;25.90;95.10
42835;DHT22;29335;50.526;30.458;2022-08-19T11:31:32;25.80;95.40
42835;DHT22;29335;50.526;30.458;2022-08-19T11:33:59;25.70;95.60
42835;DHT22;29335;50.526;30.458;2022-08-19T11:36:27;25.90;95.50
42835;DHT22;29335;50.526;30.458;2022-08-19T11:38:53;25.80;95.10
42835;DHT22;29335;50.526;30.458;2022-08-19T11:41:20;25.90;95.00
42835;DHT22;29335;50.526;30.458;2022-08-19T11:43:48;26.10;95.10
42835;DHT22;29335;50.526;30.458;2022-08-19T11:46:15;26.10;95.00
42835;DHT22;29335;50.526;30.458;2022-08-19T11:48:41;26.20;95.00
42835;DHT22;29335;50.526;30.458;2022-08-19T11:51:13;26.30;95.00
42835;DHT22;29335;50.526;30.458;2022-08-19T11:53:40;26.30;94.80
42835;DHT22;29335;50.526;30.458;2022-08-19T11:56:08;26.30;94.90
42835;DHT22;29335;50.526;30.458;2022-08-19T11:58:35;26.50;94.50
42835;DHT22;29335;50.526;30.458;2022-08-19T12:01:01;26.50;94.80
42835;DHT22;29335;50.526;30.458;2022-08-19T12:03:27;26.10;94.40
42835;DHT22;29335;50.526;30.458;2022-08-19T12:05:53;26.00;94.60
42835;DHT22;29335;50.526;30.458;2022-08-19T12:08:19;26.00;95.00
42835;DHT22;29335;50.526;30.458;2022-08-19T12:10:45;26.00;94.90
42835;DHT22;29335;50.526;30.458;2022-08-19T12:13:11;26.00;95.00
42835;DHT22;29335;50.526;30.458;2022-08-19T12:15:40;26.00;95.00
42835;DHT22;29335;50.526;30.458;2022-08-19T12:18:09;25.90;95.00
42835;DHT22;29335;50.526;30.458;2022-08-19T12:20:36;26.00;95.10
42835;DHT22;29335;50.526;30.458;2022-08-19T12:23:03;25.90;94.90
42835;DHT22;29335;50.526;30.458;2022-08-19T12:25:28;25.60;95.10
42835;DHT22;29335;50.526;30.458;2022-08-19T12:27:54;25.70;95.20
42835;DHT22;29335;50.526;30.458;2022-08-19T12:30:20;25.80;95.40
42835;DHT22;29335;50.526;30.458;2022-08-19T12:32:46;25.50;95.60
42835;DHT22;29335;50.526;30.458;2022-08-19T12:35:11;25.50;96.00
42835;DHT22;29335;50.526;30.458;2022-08-19T12:37:37;25.10;96.30
42835;DHT22;29335;50.526;30.458;2022-08-19T12:40:04;25.30;96.50
42835;DHT22;29335;50.526;30.458;2022-08-19T12:42:30;25.20;96.70
42835;DHT22;29335;50.526;30.458;2022-08-19T12:44:56;25.30;96.90
42835;DHT22;29335;50.526;30.458;2022-08-19T12:47:21;25.00;96.90
42835;DHT22;29335;50.526;30.458;2022-08-19T12:49:48;25.00;97.00
42835;DHT22;29335;50.526;30.458;2022-08-19T12:52:14;24.80;97.10
42835;DHT22;29335;50.526;30.458;2022-08-19T12:54:41;24.60;97.40
42835;DHT22;29335;50.526;30.458;2022-08-19T12:57:09;24.60;97.50
42835;DHT22;29335;50.526;30.458;2022-08-19T12:59:35;24.60;97.20
42835;DHT22;29335;50.526;30.458;2022-08-19T13:02:05;24.40;97.30
42835;DHT22;29335;50.526;30.458;2022-08-19T13:04:33;24.50;97.30
42835;DHT22;29335;50.526;30.458;2022-08-19T13:07:00;24.50;97.20
42835;DHT22;29335;50.526;30.458;2022-08-19T13:09:26;24.60;97.00
42835;DHT22;29335;50.526;30.458;2022-08-19T13:11:51;24.50;97.10
42835;DHT22;29335;50.526;30.458;2022-08-19T13:14:17;24.30;97.20
42835;DHT22;29335;50.526;30.458;2022-08-19T13:16:44;24.20;97.30
42835;DHT22;29335;50.526;30.458;2022-08-19T13:19:09;24.20;97.50
42835;DHT22;29335;50.526;30.458;2022-08-19T13:21:37;24.10;97.60
42835;DHT22;29335;50.526;30.458;2022-08-19T13:24:03;24.10;97.60
42835;DHT22;29335;50.526;30.458;2022-08-19T13:26:28;23.90;97.70
42835;DHT22;29335;50.526;30.458;2022-08-19T13:28:54;24.20;96.90
42835;DHT22;29335;50.526;30.458;2022-08-19T13:31:41;24.30;96.60
42835;DHT22;29335;50.526;30.458;2022-08-19T13:34:31;24.00;97.20
42835;DHT22;29335;50.526;30.458;2022-08-19T13:36:58;23.90;97.30
42835;DHT22;29335;50.526;30.458;2022-08-19T13:39:24;24.00;97.10
42835;DHT22;29335;50.526;30.458;2022-08-19T13:41:50;24.00;97.00
42835;DHT22;29335;50.526;30.458;2022-08-19T13:44:17;23.90;97.10
42835;DHT22;29335;50.526;30.458;2022-08-19T13:46:44;24.00;97.10
42835;DHT22;29335;50.526;30.458;2022-08-19T13:49:11;23.90;97.20
42835;DHT22;29335;50.526;30.458;2022-08-19T13:51:37;23.80;97.20
42835;DHT22;29335;50.526;30.458;2022-08-19T13:54:05;23.80;97.20
42835;DHT22;29335;50.526;30.458;2022-08-19T13:56:31;22.80;96.90
42835;DHT22;29335;50.526;30.458;2022-08-19T13:58:57;23.50;97.50
42835;DHT22;29335;50.526;30.458;2022-08-19T14:01:22;23.40;97.90
42835;DHT22;29335;50.526;30.458;2022-08-19T14:03:49;23.40;97.90
42835;DHT22;29335;50.526;30.458;2022-08-19T14:06:14;23.60;97.80
42835;DHT22;29335;50.526;30.458;2022-08-19T14:08:42;23.60;97.90
42835;DHT22;29335;50.526;30.458;2022-08-19T14:11:08;23.50;98.30
42835;DHT22;29335;50.526;30.458;2022-08-19T14:13:34;23.40;98.20
42835;DHT22;29335;50.526;30.458;2022-08-19T14:15:59;23.40;98.40
42835;DHT22;29335;50.526;30.458;2022-08-19T14:18:25;23.50;98.30
42835;DHT22;29335;50.526;30.458;2022-08-19T14:20:51;23.50;98.40
42835;DHT22;29335;50.526;30.458;2022-08-19T14:23:17;23.50;98.30
42835;DHT22;29335;50.526;30.458;2022-08-19T14:25:43;23.50;98.20
42835;DHT22;29335;50.526;30.458;2022-08-19T14:28:10;23.40;98.20
42835;DHT22;29335;50.526;30.458;2022-08-19T14:30:36;23.30;98.30
42835;DHT22;29335;50.526;30.458;2022-08-19T14:33:04;23.50;98.10
42835;DHT22;29335;50.526;30.458;2022-08-19T14:35:31;23.50;97.90
42835;DHT22;29335;50.526;30.458;2022-08-19T14:38:00;23.40;97.80
42835;DHT22;29335;50.526;30.458;2022-08-19T14:40:28;23.30;98.00
42835;DHT22;29335;50.526;30.458;2022-08-19T14:43:01;23.40;98.10
42835;DHT22;29335;50.526;30.458;2022-08-19T14:45:31;23.40;98.10
42835;DHT22;29335;50.526;30.458;2022-08-19T14:47:57;23.20;98.00
42835;DHT22;29335;50.526;30.458;2022-08-19T14:50:24;23.40;97.90
42835;DHT22;29335;50.526;30.458;2022-08-19T14:53:01;23.40;97.90
42835;DHT22;29335;50.526;30.458;2022-08-19T14:55:28;23.40;97.90
42835;DHT22;29335;50.526;30.458;2022-08-19T14:57:54;23.30;98.00
42835;DHT22;29335;50.526;30.458;2022-08-19T15:00:20;23.30;98.20
42835;DHT22;29335;50.526;30.458;2022-08-19T15:02:46;23.10;98.20
42835;DHT22;29335;50.526;30.458;2022-08-19T15:05:12;23.30;98.40
42835;DHT22;29335;50.526;30.458;2022-08-19T15:07:38;23.20;98.20
42835;DHT22;29335;50.526;30.458;2022-08-19T15:10:05;22.90;97.80
42835;DHT22;29335;50.526;30.458;2022-08-19T15:12:35;22.90;97.70
42835;DHT22;29335;50.526;30.458;2022-08-19T15:15:01;22.90;97.90
42835;DHT22;29335;50.526;30.458;2022-08-19T15:17:26;23.20;97.70
42835;DHT22;29335;50.526;30.458;2022-08-19T15:19:52;23.30;97.70
42835;DHT22;29335;50.526;30.458;2022-08-19T15:22:18;23.30;97.50
42835;DHT22;29335;50.526;30.458;2022-08-19T15:24:44;23.20;97.80
42835;DHT22;29335;50.526;30.458;2022-08-19T15:27:12;23.00;98.20
42835;DHT22;29335;50.526;30.458;2022-08-19T15:29:39;23.10;98.20
42835;DHT22;29335;50.526;30.458;2022-08-19T15:32:06;23.20;98.10